createdAt,value
2019-04-03T00:01:14.332Z,4.43
2019-04-03T00:03:42.829Z,4.20
2019-04-03T00:06:11.434Z,4.90
2019-04-03T00:08:40.018Z,4.20
2019-04-03T00:11:09.370Z,5.17
2019-04-03T00:13:41.464Z,4.10
2019-04-03T00:16:08.481Z,4.40
2019-04-03T00:18:36.931Z,4.57
2019-04-03T00:21:05.354Z,3.80
2019-04-03T00:23:33.902Z,4.63
2019-04-03T00:26:02.425Z,4.07
2019-04-03T00:28:30.876Z,4.10
2019-04-03T00:30:59.530Z,5.67
2019-04-03T00:33:27.950Z,4.37
2019-04-03T00:35:56.391Z,5.10
2019-04-03T00:38:24.822Z,4.20
2019-04-03T00:40:54.416Z,4.70
2019-04-03T00:43:24.777Z,4.00
2019-04-03T00:45:54.644Z,4.67
2019-04-03T00:48:25.288Z,5.20
2019-04-03T00:50:56.283Z,3.70
2019-04-03T00:53:23.974Z,3.98
2019-04-03T00:55:52.434Z,3.87
2019-04-03T00:58:39.590Z,4.70
2019-04-03T01:01:10.047Z,4.55
2019-04-03T01:03:39.413Z,4.17
2019-04-03T01:06:09.610Z,5.00
2019-04-03T01:08:38.251Z,4.33
2019-04-03T01:11:06.975Z,4.78
2019-04-03T01:13:37.407Z,4.70
2019-04-03T01:16:06.013Z,4.28
2019-04-03T01:18:35.417Z,3.92
2019-04-03T01:21:06.272Z,4.30
2019-04-03T01:23:37.026Z,4.12
2019-04-03T01:26:04.922Z,4.97
2019-04-03T01:28:33.342Z,4.15
2019-04-03T01:31:01.776Z,4.33
2019-04-03T01:33:30.268Z,4.97
2019-04-03T01:35:58.714Z,4.97
2019-04-03T01:38:28.742Z,4.20
2019-04-03T01:40:57.230Z,4.17
2019-04-03T01:43:25.690Z,4.50
2019-04-03T01:45:56.517Z,4.58
2019-04-03T01:48:24.331Z,4.78
2019-04-03T01:50:52.764Z,5.08
2019-04-03T01:53:21.214Z,4.30
2019-04-03T01:55:49.673Z,4.90
2019-04-03T01:58:18.185Z,4.85
2019-04-03T02:00:46.790Z,4.30
2019-04-03T02:03:15.305Z,3.60
2019-04-03T02:05:44.125Z,4.20
2019-04-03T02:08:14.012Z,4.87
2019-04-03T02:10:42.935Z,4.72
2019-04-03T02:13:11.378Z,5.12
2019-04-03T02:15:39.819Z,4.62
2019-04-03T02:18:08.281Z,4.90
2019-04-03T02:20:36.703Z,5.03
2019-04-03T02:23:05.215Z,5.15
2019-04-03T02:25:33.720Z,5.80
2019-04-03T02:28:04.028Z,4.50
2019-04-03T02:30:32.747Z,5.00
2019-04-03T02:33:01.340Z,5.72
2019-04-03T02:35:29.755Z,4.65
2019-04-03T02:37:58.204Z,5.00
2019-04-03T02:40:26.675Z,5.62
2019-04-03T02:42:55.598Z,4.58
2019-04-03T02:45:24.896Z,4.75
2019-04-03T02:47:53.458Z,5.00
2019-04-03T02:50:25.716Z,4.85
2019-04-03T02:52:58.179Z,5.45
2019-04-03T02:55:25.771Z,4.50
2019-04-03T02:57:54.351Z,5.75
2019-04-03T03:00:22.927Z,4.08
2019-04-03T03:02:51.434Z,4.78
2019-04-03T03:05:20.217Z,5.87
2019-04-03T03:07:49.011Z,6.03
2019-04-03T03:10:19.447Z,5.90
2019-04-03T03:12:48.496Z,6.47
2019-04-03T03:15:17.165Z,6.40
2019-04-03T03:17:46.307Z,6.33
2019-04-03T03:20:16.518Z,4.78
2019-04-03T03:22:49.642Z,5.00
2019-04-03T03:25:17.767Z,5.10
2019-04-03T03:27:47.658Z,5.55
2019-04-03T03:30:36.712Z,5.60
2019-04-03T03:32:47.037Z,4.65
2019-04-03T03:35:22.910Z,5.28
2019-04-03T03:37:46.385Z,5.12
2019-04-03T03:40:16.198Z,5.20
2019-04-03T03:42:45.380Z,5.70
2019-04-03T03:45:18.462Z,5.72
2019-04-03T03:47:44.788Z,5.37
2019-04-03T03:50:13.808Z,5.30
2019-04-03T03:52:42.890Z,4.80
2019-04-03T03:55:11.659Z,6.10
2019-04-03T03:57:41.134Z,5.85
2019-04-03T04:00:10.194Z,5.05
2019-04-03T04:02:43.095Z,5.12
2019-04-03T04:05:11.294Z,5.37
2019-04-03T04:07:39.650Z,5.58
2019-04-03T04:10:08.753Z,5.75
2019-04-03T04:12:41.317Z,5.40
2019-04-03T04:15:07.917Z,5.42
2019-04-03T04:17:36.916Z,5.30
2019-04-03T04:20:07.346Z,5.25
2019-04-03T04:22:37.470Z,5.50
2019-04-03T04:25:06.967Z,5.30
2019-04-03T04:27:37.902Z,4.80
2019-04-03T04:30:06.689Z,6.00
2019-04-03T04:32:35.210Z,5.15
2019-04-03T04:35:04.961Z,5.05
2019-04-03T04:37:33.402Z,5.85
2019-04-03T04:40:01.856Z,5.65
2019-04-03T04:42:30.359Z,5.10
2019-04-03T04:44:59.017Z,4.70
2019-04-03T04:47:27.607Z,5.42
2019-04-03T04:49:56.025Z,5.25
2019-04-03T04:52:27.127Z,5.70
2019-04-03T04:54:54.726Z,6.45
2019-04-03T04:57:23.168Z,6.40
2019-04-03T04:59:51.582Z,5.60
2019-04-03T05:02:20.495Z,5.45
2019-04-03T05:04:49.028Z,5.67
2019-04-03T05:07:17.539Z,5.50
2019-04-03T05:09:45.996Z,4.60
2019-04-03T05:12:14.401Z,5.90
2019-04-03T05:14:42.864Z,6.20
2019-04-03T05:17:11.282Z,5.80
2019-04-03T05:19:39.786Z,5.75
2019-04-03T05:22:08.272Z,5.20
2019-04-03T05:24:38.431Z,5.80
2019-04-03T05:27:07.844Z,5.37
2019-04-03T05:29:37.197Z,6.22
2019-04-03T05:32:05.716Z,6.97
2019-04-03T05:34:34.204Z,5.97
2019-04-03T05:37:02.948Z,5.78
2019-04-03T05:39:31.396Z,5.75
2019-04-03T05:42:00.447Z,5.30
2019-04-03T05:44:28.902Z,5.97
2019-04-03T05:46:59.488Z,5.60
2019-04-03T05:49:27.555Z,6.03
2019-04-03T05:51:55.995Z,6.00
2019-04-03T05:54:24.607Z,6.62
2019-04-03T05:56:53.204Z,7.65
2019-04-03T05:59:21.861Z,6.87
2019-04-03T06:01:50.286Z,7.33
2019-04-03T06:04:18.743Z,6.65
2019-04-03T06:06:47.364Z,6.42
2019-04-03T06:09:16.035Z,7.08
2019-04-03T06:11:46.114Z,6.53
2019-04-03T06:14:14.581Z,7.10
2019-04-03T06:16:43.002Z,6.50
2019-04-03T06:19:11.429Z,7.05
2019-04-03T06:21:39.886Z,7.25
2019-04-03T06:24:08.381Z,6.03
2019-04-03T06:26:37.800Z,6.97
2019-04-03T06:29:08.000Z,7.17
2019-04-03T06:31:36.817Z,6.10
2019-04-03T06:34:07.640Z,6.53
2019-04-03T06:36:36.678Z,8.28
2019-04-03T06:39:07.762Z,7.55
2019-04-03T06:41:36.374Z,7.00
2019-04-03T06:44:04.792Z,6.25
2019-04-03T06:46:33.317Z,6.62
2019-04-03T06:49:01.847Z,7.45
2019-04-03T06:51:30.290Z,7.03
2019-04-03T06:53:59.588Z,7.90
2019-04-03T06:56:28.474Z,7.60
2019-04-03T06:58:58.465Z,7.55
2019-04-03T07:01:26.886Z,5.92
2019-04-03T07:03:55.353Z,6.93
2019-04-03T07:06:24.012Z,6.67
2019-04-03T07:08:52.708Z,6.47
2019-04-03T07:11:23.545Z,6.07
2019-04-03T07:13:53.960Z,6.30
2019-04-03T07:16:22.075Z,5.57
2019-04-03T07:18:50.514Z,6.47
2019-04-03T07:21:18.944Z,5.70
2019-04-03T07:23:47.455Z,5.80
2019-04-03T07:26:15.871Z,5.63
2019-04-03T07:28:44.314Z,5.07
2019-04-03T07:31:13.142Z,5.53
2019-04-03T07:33:41.825Z,6.70
2019-04-03T07:36:11.580Z,4.80
2019-04-03T07:38:40.219Z,6.13
2019-04-03T07:41:08.779Z,5.03
2019-04-03T07:43:37.230Z,5.57
2019-04-03T07:46:05.727Z,5.60
2019-04-03T07:48:34.183Z,5.60
2019-04-03T07:51:02.617Z,4.57
2019-04-03T07:53:31.059Z,5.13
2019-04-03T07:55:59.538Z,4.97
2019-04-03T07:58:30.681Z,3.77
2019-04-03T08:00:58.720Z,5.53
2019-04-03T08:03:29.031Z,4.40
2019-04-03T08:05:57.499Z,3.77
2019-04-03T08:08:25.939Z,3.40
2019-04-03T08:10:54.379Z,2.90
2019-04-03T08:13:22.817Z,3.37
2019-04-03T08:15:51.282Z,3.07
2019-04-03T08:18:21.471Z,3.37
2019-04-03T08:20:49.975Z,4.03
2019-04-03T08:23:18.717Z,4.00
2019-04-03T08:25:49.219Z,2.83
2019-04-03T08:28:17.945Z,3.07
2019-04-03T08:30:46.760Z,3.60
2019-04-03T08:33:18.265Z,3.90
2019-04-03T08:35:45.542Z,3.73
2019-04-03T08:38:14.257Z,3.97
2019-04-03T08:40:44.824Z,3.60
2019-04-03T08:43:13.397Z,3.40
2019-04-03T08:45:41.833Z,4.40
2019-04-03T08:48:10.626Z,3.80
2019-04-03T08:50:39.103Z,3.60
2019-04-03T08:53:08.681Z,4.43
2019-04-03T08:55:37.383Z,7.43
2019-04-03T08:58:05.863Z,5.10
2019-04-03T09:00:34.313Z,4.57
2019-04-03T09:03:04.055Z,4.40
2019-04-03T09:05:32.967Z,5.63
2019-04-03T09:08:01.514Z,6.17
2019-04-03T09:10:31.817Z,5.80
2019-04-03T09:13:15.473Z,6.17
2019-04-03T09:15:33.040Z,5.10
2019-04-03T09:18:01.756Z,6.00
2019-04-03T09:20:30.266Z,5.53
2019-04-03T09:22:58.715Z,6.17
2019-04-03T09:25:27.253Z,6.23
2019-04-03T09:27:56.043Z,5.57
2019-04-03T09:30:25.202Z,6.00
2019-04-03T09:32:54.416Z,7.20
2019-04-03T09:35:23.287Z,6.20
2019-04-03T09:37:52.222Z,6.53
2019-04-03T09:40:20.759Z,6.37
2019-04-03T09:42:49.809Z,6.77
2019-04-03T09:45:19.411Z,6.97
2019-04-03T09:47:47.854Z,7.33
2019-04-03T09:50:16.616Z,6.93
2019-04-03T09:52:49.875Z,7.00
2019-04-03T09:55:16.807Z,5.90
2019-04-03T09:57:45.567Z,6.00
2019-04-03T10:00:15.350Z,6.90
2019-04-03T10:02:43.803Z,6.13
2019-04-03T10:05:12.862Z,6.37
2019-04-03T10:07:41.307Z,7.67
2019-04-03T10:10:09.975Z,6.67
2019-04-03T10:12:38.487Z,7.10
2019-04-03T10:15:07.902Z,7.00
2019-04-03T10:17:38.528Z,6.13
2019-04-03T10:20:09.013Z,5.53
2019-04-03T10:22:37.483Z,7.53
2019-04-03T10:25:07.658Z,6.80
2019-04-03T10:27:36.152Z,7.23
2019-04-03T10:30:10.679Z,6.90
2019-04-03T10:32:39.279Z,6.47
2019-04-03T10:35:08.252Z,7.83
2019-04-03T10:37:37.337Z,7.13
2019-04-03T10:40:07.934Z,7.97
2019-04-03T10:42:36.470Z,6.90
2019-04-03T10:45:07.154Z,7.80
2019-04-03T10:47:42.369Z,7.13
2019-04-03T10:50:09.705Z,7.50
2019-04-03T10:52:38.189Z,7.37
2019-04-03T10:55:07.981Z,7.20
2019-04-03T10:57:36.621Z,7.63
2019-04-03T11:00:12.723Z,8.20
2019-04-03T11:02:41.217Z,7.67
2019-04-03T11:05:10.824Z,6.93
2019-04-03T11:07:39.438Z,7.80
2019-04-03T11:10:10.190Z,8.47
2019-04-03T11:12:38.623Z,7.90
2019-04-03T11:15:10.538Z,8.07
2019-04-03T11:17:38.528Z,7.87
2019-04-03T11:20:09.747Z,7.60
2019-04-03T11:22:41.535Z,8.00
2019-04-03T11:25:13.884Z,8.80
2019-04-03T11:27:44.380Z,7.83
2019-04-03T11:30:17.345Z,8.63
2019-04-03T11:32:43.149Z,7.93
2019-04-03T11:35:11.760Z,7.43
2019-04-03T11:37:40.537Z,7.40
2019-04-03T11:40:10.046Z,8.40
2019-04-03T11:42:38.951Z,7.47
2019-04-03T11:45:08.388Z,7.07
2019-04-03T11:47:37.155Z,7.60
2019-04-03T11:50:08.051Z,6.80
2019-04-03T11:52:36.587Z,7.63
2019-04-03T11:55:10.945Z,7.50
2019-04-03T11:57:38.718Z,6.90
2019-04-03T12:00:11.782Z,6.80
2019-04-03T12:02:43.626Z,6.93
2019-04-03T12:05:10.930Z,8.37
2019-04-03T12:07:39.560Z,7.67
2019-04-03T12:10:08.722Z,7.27
2019-04-03T12:12:37.307Z,7.90
2019-04-03T12:15:07.550Z,6.67
2019-04-03T12:17:35.991Z,7.30
2019-04-03T12:20:09.205Z,6.97
2019-04-03T12:22:37.470Z,7.60
2019-04-03T12:25:07.162Z,6.87
2019-04-03T12:27:36.622Z,7.20
2019-04-03T12:30:10.388Z,6.70
2019-04-03T12:32:43.601Z,6.40
2019-04-03T12:35:11.021Z,6.47
2019-04-03T12:37:39.878Z,6.43
2019-04-03T12:40:09.335Z,6.90
2019-04-03T12:42:37.940Z,6.57
2019-04-03T12:45:08.539Z,6.60
2019-04-03T12:47:37.552Z,6.97
2019-04-03T12:50:07.658Z,7.40
2019-04-03T12:52:36.507Z,7.30
2019-04-03T12:55:06.978Z,7.20
2019-04-03T12:57:38.163Z,6.50
2019-04-03T13:00:10.560Z,6.83
2019-04-03T13:02:39.080Z,6.23
2019-04-03T13:05:08.348Z,7.43
2019-04-03T13:07:37.447Z,7.10
2019-04-03T13:10:08.537Z,7.67
2019-04-03T13:12:37.389Z,7.50
2019-04-03T13:15:10.485Z,7.07
2019-04-03T13:17:39.263Z,7.50
2019-04-03T13:20:08.638Z,6.67
2019-04-03T13:22:37.761Z,6.40
2019-04-03T13:25:09.019Z,6.70
2019-04-03T13:27:37.707Z,5.50
2019-04-03T13:30:11.493Z,6.53
2019-04-03T13:32:39.268Z,6.93
2019-04-03T13:35:09.147Z,7.00
2019-04-03T13:37:37.706Z,7.90
2019-04-03T13:40:07.496Z,8.13
2019-04-03T13:42:36.499Z,6.83
2019-04-03T13:45:07.493Z,6.80
2019-04-03T13:47:35.984Z,7.27
2019-04-03T13:50:07.746Z,7.17
2019-04-03T13:52:41.729Z,8.60
2019-04-03T13:55:07.566Z,8.07
2019-04-03T13:57:36.285Z,7.13
2019-04-03T14:00:19.180Z,7.60
2019-04-03T14:02:37.519Z,7.87
2019-04-03T14:05:07.776Z,6.93
2019-04-03T14:07:36.359Z,7.80
2019-04-03T14:10:10.133Z,7.57
2019-04-03T14:12:43.283Z,7.60
2019-04-03T14:15:09.695Z,7.67
2019-04-03T14:17:38.629Z,8.13
2019-04-03T14:20:08.311Z,8.80
2019-04-03T14:22:37.311Z,7.90
2019-04-03T14:25:18.467Z,7.40
2019-04-03T14:27:37.339Z,8.10
2019-04-03T14:30:11.622Z,8.17
2019-04-03T14:32:41.540Z,7.30
2019-04-03T14:35:40.440Z,6.93
2019-04-03T14:37:41.853Z,7.83
2019-04-03T14:40:12.906Z,8.33
2019-04-03T14:42:41.398Z,6.93
2019-04-03T14:45:13.369Z,8.20
2019-04-03T14:47:40.735Z,9.47
2019-04-03T14:50:10.111Z,7.50
2019-04-03T14:52:38.599Z,8.10
2019-04-03T14:55:18.021Z,7.93
2019-04-03T14:57:38.223Z,8.13
2019-04-03T15:00:23.027Z,8.47
2019-04-03T15:02:40.419Z,7.67
2019-04-03T15:05:09.878Z,9.07
2019-04-03T15:07:38.617Z,8.10
2019-04-03T15:10:07.735Z,9.13
2019-04-03T15:12:38.816Z,7.23
2019-04-03T15:15:09.471Z,7.33
2019-04-03T15:17:38.716Z,8.50
2019-04-03T15:20:09.473Z,8.90
2019-04-03T15:22:38.347Z,9.47
2019-04-03T15:25:08.992Z,8.17
2019-04-03T15:27:38.136Z,8.97
2019-04-03T15:30:11.824Z,8.57
2019-04-03T15:32:40.191Z,8.57
2019-04-03T15:35:10.303Z,8.17
2019-04-03T15:37:41.521Z,7.60
2019-04-03T15:40:09.272Z,8.17
2019-04-03T15:42:41.265Z,8.70
2019-04-03T15:45:10.572Z,7.63
2019-04-03T15:47:44.825Z,7.97
2019-04-03T15:50:11.206Z,7.60
2019-04-03T15:52:39.723Z,7.63
2019-04-03T15:55:09.003Z,8.20
2019-04-03T15:57:39.764Z,6.33
2019-04-03T16:00:11.018Z,8.60
2019-04-03T16:02:39.710Z,8.53
2019-04-03T16:05:08.630Z,7.43
2019-04-03T16:07:40.464Z,6.90
2019-04-03T16:10:07.731Z,8.00
2019-04-03T16:12:38.355Z,7.40
2019-04-03T16:15:09.208Z,7.67
2019-04-03T16:17:38.512Z,7.70
2019-04-03T16:20:09.640Z,7.37
2019-04-03T16:22:38.253Z,7.03
2019-04-03T16:25:08.047Z,8.33
2019-04-03T16:27:37.430Z,7.50
2019-04-03T16:30:09.555Z,7.70
2019-04-03T16:32:38.945Z,8.67
2019-04-03T16:35:08.096Z,7.37
2019-04-03T16:37:37.203Z,6.43
2019-04-03T16:40:08.054Z,6.63
2019-04-03T16:42:37.049Z,7.00
2019-04-03T16:45:12.054Z,7.77
2019-04-03T16:47:43.982Z,8.40
2019-04-03T16:50:13.300Z,7.23
2019-04-03T16:52:42.257Z,7.23
2019-04-03T16:55:11.818Z,6.00
2019-04-03T16:57:40.533Z,5.00
2019-04-03T17:00:10.413Z,4.70
2019-04-03T17:02:41.442Z,4.37
2019-04-03T17:05:12.091Z,4.35
2019-04-03T17:07:41.780Z,3.83
2019-04-03T17:10:10.896Z,3.50
2019-04-03T17:12:41.208Z,4.70
2019-04-03T17:15:11.923Z,4.53
2019-04-03T17:17:43.150Z,4.42
2019-04-03T17:20:13.016Z,3.17
2019-04-03T17:22:41.874Z,3.30
2019-04-03T17:25:11.866Z,3.37
2019-04-03T17:27:53.546Z,2.33
2019-04-03T17:30:11.357Z,1.80
2019-04-03T17:32:40.052Z,1.70
2019-04-03T17:35:08.998Z,2.00
2019-04-03T17:37:37.665Z,1.45
2019-04-03T17:40:11.447Z,1.40
2019-04-03T17:42:40.214Z,1.50
2019-04-03T17:45:09.717Z,1.87
2019-04-03T17:47:38.204Z,1.90
2019-04-03T17:50:08.415Z,1.80
2019-04-03T17:52:38.543Z,1.52
2019-04-03T17:55:11.190Z,1.98
2019-04-03T17:57:40.002Z,1.90
2019-04-03T18:00:14.247Z,1.90
2019-04-03T18:02:42.772Z,2.45
2019-04-03T18:05:11.631Z,3.15
2019-04-03T18:07:40.155Z,2.00
2019-04-03T18:10:12.462Z,3.08
2019-04-03T18:12:39.320Z,2.95
2019-04-03T18:15:09.452Z,3.10
2019-04-03T18:17:37.868Z,2.95
2019-04-03T18:20:08.146Z,3.00
2019-04-03T18:22:36.577Z,2.72
2019-04-03T18:25:08.209Z,2.72
2019-04-03T18:27:37.199Z,2.25
2019-04-03T18:30:11.318Z,3.05
2019-04-03T18:32:40.074Z,2.20
2019-04-03T18:35:09.982Z,2.60
2019-04-03T18:37:41.059Z,2.47
2019-04-03T18:40:14.238Z,2.27
2019-04-03T18:42:41.275Z,2.00
2019-04-03T18:45:24.184Z,2.22
2019-04-03T18:47:43.915Z,2.45
2019-04-03T18:50:12.085Z,2.50
2019-04-03T18:52:42.177Z,2.37
2019-04-03T18:55:13.986Z,1.80
2019-04-03T18:57:41.063Z,1.72
2019-04-03T19:00:10.315Z,2.10
2019-04-03T19:02:40.562Z,1.65
2019-04-03T19:05:13.627Z,2.15
2019-04-03T19:07:39.998Z,2.40
2019-04-03T19:10:09.202Z,2.47
2019-04-03T19:12:39.174Z,2.67
2019-04-03T19:15:08.321Z,2.92
2019-04-03T19:17:36.882Z,2.47
2019-04-03T19:20:11.020Z,2.30
2019-04-03T19:22:39.656Z,2.00
2019-04-03T19:25:08.341Z,2.67
2019-04-03T19:27:38.312Z,2.30
2019-04-03T19:30:07.959Z,1.98
2019-04-03T19:32:36.958Z,2.08
2019-04-03T19:35:09.455Z,2.00
2019-04-03T19:37:37.811Z,1.90
2019-04-03T19:40:09.435Z,1.90
2019-04-03T19:42:37.368Z,2.05
2019-04-03T19:45:08.018Z,1.98
2019-04-03T19:47:36.538Z,1.80
2019-04-03T19:50:07.320Z,1.70
2019-04-03T19:52:37.226Z,2.00
2019-04-03T19:55:07.682Z,1.95
2019-04-03T19:57:36.157Z,2.02
2019-04-03T20:00:06.675Z,2.27
2019-04-03T20:02:37.812Z,3.55
2019-04-03T20:05:06.951Z,8.00
2019-04-03T20:07:35.403Z,4.05
2019-04-03T20:10:06.019Z,4.67
2019-04-03T20:12:35.839Z,3.90
2019-04-03T20:15:06.871Z,3.72
2019-04-03T20:17:35.355Z,6.15
2019-04-03T20:20:05.882Z,3.30
2019-04-03T20:25:05.629Z,3.10
2019-04-03T20:27:35.738Z,3.15
2019-04-03T20:30:08.783Z,3.20
2019-04-03T20:32:40.053Z,3.25
2019-04-03T20:35:07.978Z,2.75
2019-04-03T20:37:36.405Z,2.67
2019-04-03T20:40:07.461Z,3.02
2019-04-03T20:42:36.044Z,2.95
2019-04-03T20:45:07.019Z,2.60
2019-04-03T20:47:35.547Z,3.12
2019-04-03T20:50:07.730Z,2.70
2019-04-03T20:52:37.796Z,2.92
2019-04-03T20:55:08.786Z,2.92
2019-04-03T20:57:37.285Z,2.90
2019-04-03T21:00:08.870Z,3.17
2019-04-03T21:02:37.431Z,3.70
2019-04-03T21:05:07.940Z,3.72
2019-04-03T21:07:38.147Z,4.00
2019-04-03T21:10:09.757Z,3.98
2019-04-03T21:12:38.258Z,3.60
2019-04-03T21:15:09.181Z,4.28
2019-04-03T21:17:38.054Z,3.52
2019-04-03T21:20:07.255Z,3.72
2019-04-03T21:22:35.734Z,4.10
2019-04-03T21:25:06.121Z,3.58
2019-04-03T21:27:34.722Z,4.42
2019-04-03T21:30:06.258Z,4.97
2019-04-03T21:32:34.683Z,4.40
2019-04-03T21:35:04.350Z,4.37
2019-04-03T21:37:34.547Z,4.85
2019-04-03T21:40:04.842Z,4.60
2019-04-03T21:42:33.355Z,4.45
2019-04-03T21:45:02.700Z,5.33
2019-04-03T21:47:32.023Z,5.35
2019-04-03T21:50:03.435Z,5.35
2019-04-03T21:52:30.617Z,5.50
2019-04-03T21:54:59.105Z,5.50
2019-04-03T21:57:27.703Z,5.30
2019-04-03T21:59:57.785Z,5.10
2019-04-03T22:02:26.279Z,4.70
2019-04-03T22:04:54.708Z,5.20
2019-04-03T22:07:23.141Z,5.17
2019-04-03T22:09:51.553Z,5.08
2019-04-03T22:12:19.998Z,5.20
2019-04-03T22:14:48.411Z,4.70
2019-04-03T22:17:16.855Z,5.25
2019-04-03T22:19:46.802Z,4.00
2019-04-03T22:22:15.322Z,3.45
2019-04-03T22:24:43.808Z,3.40
2019-04-03T22:27:14.005Z,4.85
2019-04-03T22:29:42.414Z,3.77
2019-04-03T22:32:10.848Z,4.45
2019-04-03T22:34:39.274Z,4.45
2019-04-03T22:37:07.714Z,4.70
2019-04-03T22:39:38.717Z,4.78
2019-04-03T22:42:06.411Z,5.28
2019-04-03T22:44:34.843Z,5.03
2019-04-03T22:47:03.254Z,5.55
2019-04-03T22:49:33.749Z,5.67
2019-04-03T22:52:01.829Z,5.25
2019-04-03T22:54:30.341Z,6.40
2019-04-03T22:56:58.758Z,6.33
2019-04-03T22:59:27.219Z,7.30
2019-04-03T23:01:55.694Z,7.28
2019-04-03T23:04:24.145Z,7.05
2019-04-03T23:06:52.560Z,7.90
2019-04-03T23:09:21.004Z,9.20
2019-04-03T23:11:49.544Z,8.33
2019-04-03T23:14:17.982Z,8.80
2019-04-03T23:16:46.409Z,8.60
2019-04-03T23:19:17.969Z,9.00
2019-04-03T23:21:46.538Z,8.78
2019-04-03T23:24:14.989Z,9.70
2019-04-03T23:26:43.498Z,10.05
2019-04-03T23:29:13.499Z,9.53
2019-04-03T23:31:44.652Z,9.25
2019-04-03T23:34:12.175Z,9.43
2019-04-03T23:36:42.117Z,10.30
2019-04-03T23:39:10.632Z,10.63
2019-04-03T23:41:40.596Z,11.60
2019-04-03T23:44:11.111Z,10.65
2019-04-03T23:46:39.363Z,11.65
2019-04-03T23:49:07.877Z,11.65
2019-04-03T23:51:36.370Z,11.43
2019-04-03T23:54:04.963Z,11.40
2019-04-03T23:56:35.205Z,10.50
2019-04-03T23:59:03.892Z,11.00
